Benguela Stream — PENR — position and weather

sailwx.info

Track history (hours):
 
Tides and Currents Weather Stations Pressure Air Temp Water Temp Dewpoint Dewpoint Depression Visibility Wind Speed Wind Dir Waves Ship Positions

Benguela Stream

Last reported at 2015-Sep-01 15:34 UTC. Time now 2015-Sep-01 16:14 UTC.
Position N 17°09' W 061°55'.

Length 150 m; beam 13 m.

Type: Ship (hazmat cat D). MMSI: 244455000.

Date/timePositionNaut miles runAvg speedWind from/ knotsBaromVisibWave heightAir tempDewpointWater temp
2015-Sep-01 15:34N 17°09' W 061°55'1212.5
2015-Sep-01 14:33N 16°56' W 061°58'1414.1
2015-Sep-01 13:34N 16°43' W 061°55'1717.0
2015-Sep-01 12:34N 16°26' W 061°52'1919.1
2015-Sep-01 11:33N 16°07' W 061°49'2518.7
2015-Sep-01 10:11N 15°42' W 061°43'5019.0
2015-Sep-01 07:33N 14°54' W 061°27'1918.8
2015-Sep-01 06:33N 14°36' W 061°22'1919.3
2015-Sep-01 05:33N 14°18' W 061°16'1918.5
2015-Sep-01 04:33N 14°00' W 061°10'23 0.7
2015-Aug-30 18:28N 13°38' W 061°02'27 0.6
2015-Aug-28 18:31N 14°00' W 060°46'1414.3
2015-Aug-28 17:33N 14°05' W 060°59'4 0.3
2015-Aug-28 02:22N 14°01' W 060°60'4 4.2
2015-Aug-28 01:26N 14°04' W 061°01'1415.3
2015-Aug-28 00:34N 14°17' W 061°04'712.0
2015-Aug-28 00:00N 14°24' W 061°06'1023.1 090 / 41013.710.8 0.528.624.930.0
2015-Aug-27 23:33N 14°34' W 061°06'3 3.3
2015-Aug-27 22:31N 14°35' W 061°03'0 0.0
2015-Aug-27 21:31N 14°35' W 061°03'0 0.0
2015-Aug-27 20:31N 14°35' W 061°03'0 0.0
2015-Aug-27 19:31N 14°35' W 061°03'0 0.0
2015-Aug-27 18:29N 14°35' W 061°03'4 4.6
2015-Aug-27 17:34N 14°33' W 061°06'1514.9
2015-Aug-27 16:33N 14°23' W 060°55'1514.9
2015-Aug-27 15:34N 14°26' W 060°40'69817.6
2015-Aug-26 00:00N 21°18' W 050°48'34419.1 090 / 111017.2 5.4 0.528.024.428.2
2015-Aug-25 06:00N 26°00' W 047°12'11218.7 090 / 101019.8 5.4 0.527.521.627.7
2015-Aug-25 00:00N 27°12' W 045°36'44518.5 090 / 21021.810.8 26.521.328.2
2015-Aug-24 00:00N 32°00' W 039°06'57019.1 080 / 21026.510.8 25.519.826.3
2015-Aug-22 18:06N 38°11' W 030°18'1019.0
2015-Aug-22 17:34N 38°18' W 030°08'1919.2
2015-Aug-22 16:34N 38°29' W 029°48'  
Track history (hours):
 
Tides and Currents Weather Stations Pressure Air Temp Water Temp Dewpoint Dewpoint Depression Visibility Wind Speed Wind Dir Waves Ship Positions

Benguela Stream

Last reported at 2015-Sep-01 15:34 UTC. Time now 2015-Sep-01 16:14 UTC.
Position N 17°09' W 061°55'.

Length 150 m; beam 13 m.

Type: Ship (hazmat cat D). MMSI: 244455000.

Date/timePositionNaut miles runAvg speedWind from/ knotsBaromVisibWave heightAir tempDewpointWater temp
2015-Sep-01 15:34N 17°09' W 061°55'1212.5
2015-Sep-01 14:33N 16°56' W 061°58'1414.1
2015-Sep-01 13:34N 16°43' W 061°55'1717.0
2015-Sep-01 12:34N 16°26' W 061°52'1919.1
2015-Sep-01 11:33N 16°07' W 061°49'2518.7
2015-Sep-01 10:11N 15°42' W 061°43'5019.0
2015-Sep-01 07:33N 14°54' W 061°27'1918.8
2015-Sep-01 06:33N 14°36' W 061°22'1919.3
2015-Sep-01 05:33N 14°18' W 061°16'1918.5
2015-Sep-01 04:33N 14°00' W 061°10'23 0.7
2015-Aug-30 18:28N 13°38' W 061°02'27 0.6
2015-Aug-28 18:31N 14°00' W 060°46'1414.3
2015-Aug-28 17:33N 14°05' W 060°59'4 0.3
2015-Aug-28 02:22N 14°01' W 060°60'4 4.2
2015-Aug-28 01:26N 14°04' W 061°01'1415.3
2015-Aug-28 00:34N 14°17' W 061°04'712.0
2015-Aug-28 00:00N 14°24' W 061°06'1023.1 090 / 41013.710.8 0.528.624.930.0
2015-Aug-27 23:33N 14°34' W 061°06'3 3.3
2015-Aug-27 22:31N 14°35' W 061°03'0 0.0
2015-Aug-27 21:31N 14°35' W 061°03'0 0.0
2015-Aug-27 20:31N 14°35' W 061°03'0 0.0
2015-Aug-27 19:31N 14°35' W 061°03'0 0.0
2015-Aug-27 18:29N 14°35' W 061°03'4 4.6
2015-Aug-27 17:34N 14°33' W 061°06'1514.9
2015-Aug-27 16:33N 14°23' W 060°55'1514.9
2015-Aug-27 15:34N 14°26' W 060°40'69817.6
2015-Aug-26 00:00N 21°18' W 050°48'34419.1 090 / 111017.2 5.4 0.528.024.428.2
2015-Aug-25 06:00N 26°00' W 047°12'11218.7 090 / 101019.8 5.4 0.527.521.627.7
2015-Aug-25 00:00N 27°12' W 045°36'44518.5 090 / 21021.810.8 26.521.328.2
2015-Aug-24 00:00N 32°00' W 039°06'57019.1 080 / 21026.510.8 25.519.826.3
2015-Aug-22 18:06N 38°11' W 030°18'1019.0
2015-Aug-22 17:34N 38°18' W 030°08'1919.2
2015-Aug-22 16:34N 38°29' W 029°48'  

Dump ship's entire track history